Terminal Aerodrome Forecast
Issued by NWS Wilmington, NC

Home | Current Version | Previous Version | Text Only | Print | Product List | Glossary On
Versions: 1 2 3 4 5 6 7 8 9 10 11 12 13 14 15 16 17 18
502
FTUS42 KILM 232339
TAFLBT
TAF
KLBT 232339Z 2400/2424 22009KT P6SM VCTS SCT040CB BKN070
      TEMPO 2400/2402 3SM TSRA BKN030CB
     FM240200 20007KT P6SM VCTS SCT030CB SCT050
     FM240600 22006KT P6SM SCT020 BKN100
     FM241300 21008KT P6SM SCT030 BKN060=

USA.gov is the U.S. government's official web portal to all federal, state and local government web resources and services.